sensor_id;sensor_type;location;lat;lon;timestamp;P1;durP1;ratioP1;P2;durP2;ratioP2
19747;SDS011;10032;51.386;12.516;2022-12-07T00:00:42;11.87;;;6.10;;
19747;SDS011;10032;51.386;12.516;2022-12-07T00:03:08;8.13;;;5.57;;
19747;SDS011;10032;51.386;12.516;2022-12-07T00:05:33;8.80;;;5.00;;
19747;SDS011;10032;51.386;12.516;2022-12-07T00:07:58;10.10;;;6.23;;
19747;SDS011;10032;51.386;12.516;2022-12-07T00:10:24;7.27;;;4.93;;
19747;SDS011;10032;51.386;12.516;2022-12-07T00:12:49;6.50;;;5.23;;
19747;SDS011;10032;51.386;12.516;2022-12-07T00:15:15;7.30;;;5.50;;
19747;SDS011;10032;51.386;12.516;2022-12-07T00:17:40;8.33;;;6.23;;
19747;SDS011;10032;51.386;12.516;2022-12-07T00:20:06;7.93;;;5.73;;
19747;SDS011;10032;51.386;12.516;2022-12-07T00:22:32;9.23;;;6.00;;
19747;SDS011;10032;51.386;12.516;2022-12-07T00:24:57;8.87;;;5.37;;
19747;SDS011;10032;51.386;12.516;2022-12-07T00:27:22;9.07;;;5.53;;
19747;SDS011;10032;51.386;12.516;2022-12-07T00:29:48;11.10;;;6.27;;
19747;SDS011;10032;51.386;12.516;2022-12-07T00:32:13;7.83;;;4.60;;
19747;SDS011;10032;51.386;12.516;2022-12-07T00:34:39;8.83;;;5.70;;
19747;SDS011;10032;51.386;12.516;2022-12-07T00:37:04;8.23;;;5.27;;
19747;SDS011;10032;51.386;12.516;2022-12-07T00:39:29;9.23;;;5.40;;
19747;SDS011;10032;51.386;12.516;2022-12-07T00:41:55;8.77;;;5.87;;
19747;SDS011;10032;51.386;12.516;2022-12-07T00:44:20;8.10;;;5.47;;
19747;SDS011;10032;51.386;12.516;2022-12-07T00:46:46;6.50;;;4.90;;
19747;SDS011;10032;51.386;12.516;2022-12-07T00:49:11;10.70;;;5.93;;
19747;SDS011;10032;51.386;12.516;2022-12-07T00:51:37;8.17;;;5.53;;
19747;SDS011;10032;51.386;12.516;2022-12-07T00:54:02;7.47;;;5.80;;
19747;SDS011;10032;51.386;12.516;2022-12-07T00:56:28;6.83;;;5.57;;
19747;SDS011;10032;51.386;12.516;2022-12-07T00:58:55;7.40;;;5.10;;
19747;SDS011;10032;51.386;12.516;2022-12-07T01:01:26;7.77;;;5.87;;
19747;SDS011;10032;51.386;12.516;2022-12-07T01:03:53;11.47;;;6.07;;
19747;SDS011;10032;51.386;12.516;2022-12-07T01:06:19;8.07;;;5.87;;
19747;SDS011;10032;51.386;12.516;2022-12-07T01:08:46;9.53;;;5.80;;
19747;SDS011;10032;51.386;12.516;2022-12-07T01:11:16;7.87;;;5.53;;
19747;SDS011;10032;51.386;12.516;2022-12-07T01:13:43;10.10;;;6.03;;
19747;SDS011;10032;51.386;12.516;2022-12-07T01:16:10;9.60;;;5.97;;
19747;SDS011;10032;51.386;12.516;2022-12-07T01:18:40;9.70;;;6.50;;
19747;SDS011;10032;51.386;12.516;2022-12-07T01:21:07;9.63;;;6.77;;
19747;SDS011;10032;51.386;12.516;2022-12-07T01:23:36;9.43;;;6.17;;
19747;SDS011;10032;51.386;12.516;2022-12-07T01:26:04;10.00;;;6.67;;
19747;SDS011;10032;51.386;12.516;2022-12-07T01:28:31;11.17;;;6.93;;
19747;SDS011;10032;51.386;12.516;2022-12-07T01:30:58;11.13;;;6.17;;
19747;SDS011;10032;51.386;12.516;2022-12-07T01:33:27;11.50;;;6.43;;
19747;SDS011;10032;51.386;12.516;2022-12-07T01:35:54;11.30;;;6.87;;
19747;SDS011;10032;51.386;12.516;2022-12-07T01:38:19;12.27;;;6.37;;
19747;SDS011;10032;51.386;12.516;2022-12-07T01:40:45;12.17;;;7.03;;
19747;SDS011;10032;51.386;12.516;2022-12-07T01:43:15;9.33;;;6.60;;
19747;SDS011;10032;51.386;12.516;2022-12-07T01:45:43;13.07;;;7.00;;
19747;SDS011;10032;51.386;12.516;2022-12-07T01:48:08;13.27;;;7.33;;
19747;SDS011;10032;51.386;12.516;2022-12-07T01:50:36;12.83;;;7.40;;
19747;SDS011;10032;51.386;12.516;2022-12-07T01:53:04;12.27;;;6.90;;
19747;SDS011;10032;51.386;12.516;2022-12-07T01:55:34;10.70;;;7.13;;
19747;SDS011;10032;51.386;12.516;2022-12-07T01:58:02;11.87;;;7.60;;
19747;SDS011;10032;51.386;12.516;2022-12-07T02:00:28;10.53;;;7.50;;
19747;SDS011;10032;51.386;12.516;2022-12-07T02:05:28;11.13;;;7.30;;
19747;SDS011;10032;51.386;12.516;2022-12-07T02:07:54;11.10;;;6.90;;
19747;SDS011;10032;51.386;12.516;2022-12-07T02:10:22;10.37;;;6.90;;
19747;SDS011;10032;51.386;12.516;2022-12-07T02:12:57;10.10;;;6.50;;
19747;SDS011;10032;51.386;12.516;2022-12-07T02:15:51;10.90;;;6.50;;
19747;SDS011;10032;51.386;12.516;2022-12-07T02:27:12;12.43;;;7.77;;
19747;SDS011;10032;51.386;12.516;2022-12-07T02:29:42;10.97;;;6.57;;
19747;SDS011;10032;51.386;12.516;2022-12-07T02:37:29;12.70;;;7.80;;
19747;SDS011;10032;51.386;12.516;2022-12-07T02:40:07;15.40;;;7.47;;
19747;SDS011;10032;51.386;12.516;2022-12-07T02:42:36;13.77;;;7.80;;
19747;SDS011;10032;51.386;12.516;2022-12-07T02:45:05;10.67;;;7.20;;
19747;SDS011;10032;51.386;12.516;2022-12-07T02:47:33;13.93;;;8.03;;
19747;SDS011;10032;51.386;12.516;2022-12-07T02:50:02;13.60;;;7.27;;
19747;SDS011;10032;51.386;12.516;2022-12-07T02:52:29;9.17;;;6.53;;
19747;SDS011;10032;51.386;12.516;2022-12-07T02:54:55;11.17;;;6.63;;
19747;SDS011;10032;51.386;12.516;2022-12-07T02:57:44;14.17;;;8.20;;
19747;SDS011;10032;51.386;12.516;2022-12-07T03:00:24;13.40;;;8.00;;
19747;SDS011;10032;51.386;12.516;2022-12-07T03:08:02;13.03;;;7.50;;
19747;SDS011;10032;51.386;12.516;2022-12-07T03:15:58;10.23;;;7.50;;
19747;SDS011;10032;51.386;12.516;2022-12-07T03:18:35;11.20;;;7.10;;
19747;SDS011;10032;51.386;12.516;2022-12-07T03:21:05;11.60;;;7.17;;
19747;SDS011;10032;51.386;12.516;2022-12-07T03:23:37;14.13;;;7.60;;
19747;SDS011;10032;51.386;12.516;2022-12-07T03:26:06;10.30;;;6.77;;
19747;SDS011;10032;51.386;12.516;2022-12-07T03:28:36;9.20;;;6.47;;
19747;SDS011;10032;51.386;12.516;2022-12-07T03:36:25;11.20;;;7.13;;
19747;SDS011;10032;51.386;12.516;2022-12-07T03:41:39;9.57;;;5.37;;
19747;SDS011;10032;51.386;12.516;2022-12-07T03:44:05;10.87;;;6.23;;
19747;SDS011;10032;51.386;12.516;2022-12-07T03:51:55;10.60;;;6.30;;
19747;SDS011;10032;51.386;12.516;2022-12-07T03:54:36;10.20;;;5.93;;
19747;SDS011;10032;51.386;12.516;2022-12-07T03:57:02;9.93;;;5.53;;
19747;SDS011;10032;51.386;12.516;2022-12-07T03:59:29;11.57;;;6.07;;
19747;SDS011;10032;51.386;12.516;2022-12-07T04:01:56;12.13;;;6.27;;
19747;SDS011;10032;51.386;12.516;2022-12-07T04:04:27;10.37;;;5.80;;
19747;SDS011;10032;51.386;12.516;2022-12-07T04:06:53;11.43;;;6.20;;
19747;SDS011;10032;51.386;12.516;2022-12-07T04:09:18;10.30;;;6.27;;
19747;SDS011;10032;51.386;12.516;2022-12-07T04:11:44;9.87;;;5.50;;
19747;SDS011;10032;51.386;12.516;2022-12-07T04:14:09;8.17;;;5.27;;
19747;SDS011;10032;51.386;12.516;2022-12-07T04:17:05;10.03;;;6.07;;
19747;SDS011;10032;51.386;12.516;2022-12-07T04:19:30;8.37;;;5.83;;
19747;SDS011;10032;51.386;12.516;2022-12-07T04:21:58;11.50;;;5.70;;
19747;SDS011;10032;51.386;12.516;2022-12-07T04:24:25;10.87;;;6.87;;
19747;SDS011;10032;51.386;12.516;2022-12-07T04:26:51;10.03;;;6.33;;
19747;SDS011;10032;51.386;12.516;2022-12-07T04:29:17;7.90;;;6.07;;
19747;SDS011;10032;51.386;12.516;2022-12-07T04:31:43;8.03;;;5.20;;
19747;SDS011;10032;51.386;12.516;2022-12-07T04:34:09;9.63;;;5.77;;
19747;SDS011;10032;51.386;12.516;2022-12-07T04:36:35;9.37;;;5.17;;
19747;SDS011;10032;51.386;12.516;2022-12-07T04:39:00;11.53;;;6.10;;
19747;SDS011;10032;51.386;12.516;2022-12-07T04:41:26;8.93;;;5.30;;
19747;SDS011;10032;51.386;12.516;2022-12-07T04:43:53;8.37;;;6.00;;
19747;SDS011;10032;51.386;12.516;2022-12-07T04:46:26;10.17;;;5.90;;
19747;SDS011;10032;51.386;12.516;2022-12-07T04:48:52;8.67;;;5.63;;
19747;SDS011;10032;51.386;12.516;2022-12-07T04:51:19;8.80;;;5.57;;
19747;SDS011;10032;51.386;12.516;2022-12-07T04:53:47;9.27;;;6.07;;
19747;SDS011;10032;51.386;12.516;2022-12-07T04:56:13;9.33;;;5.60;;
19747;SDS011;10032;51.386;12.516;2022-12-07T04:58:39;8.20;;;5.53;;
19747;SDS011;10032;51.386;12.516;2022-12-07T05:01:04;10.80;;;6.20;;
19747;SDS011;10032;51.386;12.516;2022-12-07T05:03:30;10.73;;;6.97;;
19747;SDS011;10032;51.386;12.516;2022-12-07T05:05:55;9.53;;;6.00;;
19747;SDS011;10032;51.386;12.516;2022-12-07T05:08:20;8.97;;;5.10;;
19747;SDS011;10032;51.386;12.516;2022-12-07T05:10:46;8.60;;;5.27;;
19747;SDS011;10032;51.386;12.516;2022-12-07T05:13:13;10.87;;;6.07;;
19747;SDS011;10032;51.386;12.516;2022-12-07T05:15:39;9.23;;;5.77;;
19747;SDS011;10032;51.386;12.516;2022-12-07T05:18:04;8.70;;;5.77;;
19747;SDS011;10032;51.386;12.516;2022-12-07T05:20:30;9.37;;;5.73;;
19747;SDS011;10032;51.386;12.516;2022-12-07T05:22:55;11.67;;;5.13;;
19747;SDS011;10032;51.386;12.516;2022-12-07T05:25:23;9.53;;;5.37;;
19747;SDS011;10032;51.386;12.516;2022-12-07T05:27:49;7.67;;;4.97;;
19747;SDS011;10032;51.386;12.516;2022-12-07T05:30:14;10.63;;;5.87;;
19747;SDS011;10032;51.386;12.516;2022-12-07T05:32:39;11.33;;;6.57;;
19747;SDS011;10032;51.386;12.516;2022-12-07T05:35:05;8.07;;;5.53;;
19747;SDS011;10032;51.386;12.516;2022-12-07T05:37:31;9.27;;;6.67;;
19747;SDS011;10032;51.386;12.516;2022-12-07T05:39:56;10.13;;;5.40;;
19747;SDS011;10032;51.386;12.516;2022-12-07T05:42:22;7.53;;;5.63;;
19747;SDS011;10032;51.386;12.516;2022-12-07T05:44:47;9.37;;;5.20;;
19747;SDS011;10032;51.386;12.516;2022-12-07T05:47:13;10.63;;;6.27;;
19747;SDS011;10032;51.386;12.516;2022-12-07T05:49:40;8.83;;;5.57;;
19747;SDS011;10032;51.386;12.516;2022-12-07T05:52:05;10.37;;;5.87;;
19747;SDS011;10032;51.386;12.516;2022-12-07T05:54:31;9.80;;;5.57;;
19747;SDS011;10032;51.386;12.516;2022-12-07T05:56:57;10.50;;;6.83;;
19747;SDS011;10032;51.386;12.516;2022-12-07T05:59:22;7.60;;;5.37;;
19747;SDS011;10032;51.386;12.516;2022-12-07T06:01:55;12.43;;;6.57;;
19747;SDS011;10032;51.386;12.516;2022-12-07T06:04:22;11.83;;;6.87;;
19747;SDS011;10032;51.386;12.516;2022-12-07T06:06:49;10.17;;;6.17;;
19747;SDS011;10032;51.386;12.516;2022-12-07T06:09:15;10.00;;;6.83;;
19747;SDS011;10032;51.386;12.516;2022-12-07T06:11:41;9.67;;;6.57;;
19747;SDS011;10032;51.386;12.516;2022-12-07T06:14:25;8.87;;;5.27;;
19747;SDS011;10032;51.386;12.516;2022-12-07T06:16:50;8.57;;;5.57;;
19747;SDS011;10032;51.386;12.516;2022-12-07T06:19:16;7.40;;;5.77;;
19747;SDS011;10032;51.386;12.516;2022-12-07T06:21:41;9.10;;;6.50;;
19747;SDS011;10032;51.386;12.516;2022-12-07T06:24:08;8.67;;;6.53;;
19747;SDS011;10032;51.386;12.516;2022-12-07T06:26:36;10.50;;;7.80;;
19747;SDS011;10032;51.386;12.516;2022-12-07T06:29:02;9.87;;;5.90;;
19747;SDS011;10032;51.386;12.516;2022-12-07T06:31:28;12.83;;;7.30;;
19747;SDS011;10032;51.386;12.516;2022-12-07T06:33:58;12.23;;;8.10;;
19747;SDS011;10032;51.386;12.516;2022-12-07T06:36:24;10.37;;;7.20;;
19747;SDS011;10032;51.386;12.516;2022-12-07T06:38:50;8.73;;;6.07;;
19747;SDS011;10032;51.386;12.516;2022-12-07T06:41:15;9.63;;;6.30;;
19747;SDS011;10032;51.386;12.516;2022-12-07T06:43:41;9.83;;;6.47;;
19747;SDS011;10032;51.386;12.516;2022-12-07T06:46:07;11.03;;;6.37;;
19747;SDS011;10032;51.386;12.516;2022-12-07T06:48:32;10.70;;;7.13;;
19747;SDS011;10032;51.386;12.516;2022-12-07T06:50:58;10.10;;;6.93;;
19747;SDS011;10032;51.386;12.516;2022-12-07T06:53:23;10.73;;;7.23;;
19747;SDS011;10032;51.386;12.516;2022-12-07T06:55:49;11.47;;;7.73;;
19747;SDS011;10032;51.386;12.516;2022-12-07T06:58:14;12.10;;;7.43;;
19747;SDS011;10032;51.386;12.516;2022-12-07T07:00:40;9.53;;;6.83;;
19747;SDS011;10032;51.386;12.516;2022-12-07T07:03:05;11.17;;;7.73;;
19747;SDS011;10032;51.386;12.516;2022-12-07T07:05:31;12.47;;;7.83;;
19747;SDS011;10032;51.386;12.516;2022-12-07T07:07:56;11.67;;;7.53;;
19747;SDS011;10032;51.386;12.516;2022-12-07T07:10:22;12.47;;;8.37;;
19747;SDS011;10032;51.386;12.516;2022-12-07T07:12:47;9.77;;;6.70;;
19747;SDS011;10032;51.386;12.516;2022-12-07T07:15:12;10.90;;;7.13;;
19747;SDS011;10032;51.386;12.516;2022-12-07T07:17:38;9.50;;;6.80;;
19747;SDS011;10032;51.386;12.516;2022-12-07T07:20:03;9.70;;;6.77;;
19747;SDS011;10032;51.386;12.516;2022-12-07T07:22:30;11.20;;;7.53;;
19747;SDS011;10032;51.386;12.516;2022-12-07T07:24:55;12.20;;;7.67;;
19747;SDS011;10032;51.386;12.516;2022-12-07T07:27:21;12.43;;;7.70;;
19747;SDS011;10032;51.386;12.516;2022-12-07T07:29:46;17.93;;;9.77;;
19747;SDS011;10032;51.386;12.516;2022-12-07T07:32:11;12.17;;;7.50;;
19747;SDS011;10032;51.386;12.516;2022-12-07T07:34:37;11.73;;;8.27;;
19747;SDS011;10032;51.386;12.516;2022-12-07T07:37:02;11.67;;;8.23;;
19747;SDS011;10032;51.386;12.516;2022-12-07T07:39:28;15.80;;;9.73;;
19747;SDS011;10032;51.386;12.516;2022-12-07T07:41:53;17.57;;;8.33;;
19747;SDS011;10032;51.386;12.516;2022-12-07T07:44:19;16.13;;;10.07;;
19747;SDS011;10032;51.386;12.516;2022-12-07T07:46:44;14.23;;;9.17;;
19747;SDS011;10032;51.386;12.516;2022-12-07T07:49:10;14.53;;;9.40;;
19747;SDS011;10032;51.386;12.516;2022-12-07T07:51:36;12.77;;;8.37;;
19747;SDS011;10032;51.386;12.516;2022-12-07T07:54:02;13.30;;;8.30;;
19747;SDS011;10032;51.386;12.516;2022-12-07T07:56:27;11.47;;;8.13;;
19747;SDS011;10032;51.386;12.516;2022-12-07T07:58:53;12.47;;;8.60;;
19747;SDS011;10032;51.386;12.516;2022-12-07T08:01:19;13.70;;;8.10;;
19747;SDS011;10032;51.386;12.516;2022-12-07T08:03:45;15.80;;;7.43;;
19747;SDS011;10032;51.386;12.516;2022-12-07T08:06:11;12.07;;;7.90;;
19747;SDS011;10032;51.386;12.516;2022-12-07T08:08:37;11.27;;;7.37;;
19747;SDS011;10032;51.386;12.516;2022-12-07T08:11:05;12.73;;;7.70;;
19747;SDS011;10032;51.386;12.516;2022-12-07T08:13:32;11.67;;;7.87;;
19747;SDS011;10032;51.386;12.516;2022-12-07T08:15:58;13.63;;;8.03;;
19747;SDS011;10032;51.386;12.516;2022-12-07T08:18:23;13.70;;;8.43;;
19747;SDS011;10032;51.386;12.516;2022-12-07T08:20:49;13.17;;;7.50;;
19747;SDS011;10032;51.386;12.516;2022-12-07T08:23:14;13.43;;;7.87;;
19747;SDS011;10032;51.386;12.516;2022-12-07T08:25:40;14.93;;;7.13;;
19747;SDS011;10032;51.386;12.516;2022-12-07T08:28:05;11.30;;;7.13;;
19747;SDS011;10032;51.386;12.516;2022-12-07T08:30:31;12.93;;;7.20;;
19747;SDS011;10032;51.386;12.516;2022-12-07T08:32:57;13.00;;;6.47;;
19747;SDS011;10032;51.386;12.516;2022-12-07T08:35:22;10.43;;;7.37;;
19747;SDS011;10032;51.386;12.516;2022-12-07T08:37:48;16.73;;;10.13;;
19747;SDS011;10032;51.386;12.516;2022-12-07T08:40:13;10.97;;;7.97;;
19747;SDS011;10032;51.386;12.516;2022-12-07T08:42:43;12.73;;;7.47;;
19747;SDS011;10032;51.386;12.516;2022-12-07T08:45:11;10.43;;;7.73;;
19747;SDS011;10032;51.386;12.516;2022-12-07T08:47:42;11.83;;;7.47;;
19747;SDS011;10032;51.386;12.516;2022-12-07T08:50:11;12.43;;;7.83;;
19747;SDS011;10032;51.386;12.516;2022-12-07T08:52:37;10.77;;;7.80;;
19747;SDS011;10032;51.386;12.516;2022-12-07T08:55:05;10.50;;;7.37;;
19747;SDS011;10032;51.386;12.516;2022-12-07T08:57:31;10.30;;;7.43;;
19747;SDS011;10032;51.386;12.516;2022-12-07T08:59:59;12.17;;;7.97;;
19747;SDS011;10032;51.386;12.516;2022-12-07T09:02:24;14.33;;;7.30;;
19747;SDS011;10032;51.386;12.516;2022-12-07T09:04:50;8.97;;;6.00;;
19747;SDS011;10032;51.386;12.516;2022-12-07T09:07:16;14.50;;;7.17;;
19747;SDS011;10032;51.386;12.516;2022-12-07T09:09:41;11.80;;;8.47;;
19747;SDS011;10032;51.386;12.516;2022-12-07T09:12:07;12.40;;;6.83;;
19747;SDS011;10032;51.386;12.516;2022-12-07T09:14:33;14.47;;;7.23;;
19747;SDS011;10032;51.386;12.516;2022-12-07T09:17:06;10.27;;;6.80;;
19747;SDS011;10032;51.386;12.516;2022-12-07T09:19:35;9.27;;;6.27;;
19747;SDS011;10032;51.386;12.516;2022-12-07T09:22:01;14.63;;;8.33;;
19747;SDS011;10032;51.386;12.516;2022-12-07T09:24:26;7.53;;;4.67;;
19747;SDS011;10032;51.386;12.516;2022-12-07T09:26:52;8.47;;;5.60;;
19747;SDS011;10032;51.386;12.516;2022-12-07T09:29:18;9.53;;;5.50;;
19747;SDS011;10032;51.386;12.516;2022-12-07T09:31:43;6.90;;;4.87;;
19747;SDS011;10032;51.386;12.516;2022-12-07T09:34:08;9.33;;;5.77;;
19747;SDS011;10032;51.386;12.516;2022-12-07T09:36:34;7.77;;;5.33;;
19747;SDS011;10032;51.386;12.516;2022-12-07T09:38:59;8.50;;;5.63;;
19747;SDS011;10032;51.386;12.516;2022-12-07T09:41:25;8.20;;;4.97;;
19747;SDS011;10032;51.386;12.516;2022-12-07T09:43:53;8.23;;;4.93;;
19747;SDS011;10032;51.386;12.516;2022-12-07T09:46:25;5.97;;;4.80;;
19747;SDS011;10032;51.386;12.516;2022-12-07T09:48:51;7.27;;;4.23;;
19747;SDS011;10032;51.386;12.516;2022-12-07T09:51:18;12.37;;;5.33;;
19747;SDS011;10032;51.386;12.516;2022-12-07T09:53:48;5.90;;;4.83;;
19747;SDS011;10032;51.386;12.516;2022-12-07T09:56:16;6.43;;;4.33;;
19747;SDS011;10032;51.386;12.516;2022-12-07T09:58:43;6.60;;;4.00;;
19747;SDS011;10032;51.386;12.516;2022-12-07T10:04:27;10.97;;;5.33;;
19747;SDS011;10032;51.386;12.516;2022-12-07T10:06:33;6.70;;;4.80;;
19747;SDS011;10032;51.386;12.516;2022-12-07T10:08:59;7.80;;;4.87;;
19747;SDS011;10032;51.386;12.516;2022-12-07T10:11:24;5.27;;;4.50;;
19747;SDS011;10032;51.386;12.516;2022-12-07T10:13:52;8.13;;;5.00;;
19747;SDS011;10032;51.386;12.516;2022-12-07T10:18:53;5.23;;;4.37;;
19747;SDS011;10032;51.386;12.516;2022-12-07T10:21:20;7.37;;;4.87;;
19747;SDS011;10032;51.386;12.516;2022-12-07T10:29:16;6.70;;;4.67;;
19747;SDS011;10032;51.386;12.516;2022-12-07T10:31:55;6.63;;;5.20;;
19747;SDS011;10032;51.386;12.516;2022-12-07T10:34:24;7.10;;;4.33;;
19747;SDS011;10032;51.386;12.516;2022-12-07T10:36:52;7.60;;;4.93;;
19747;SDS011;10032;51.386;12.516;2022-12-07T10:39:19;10.57;;;5.37;;
19747;SDS011;10032;51.386;12.516;2022-12-07T10:44:30;8.80;;;4.80;;
19747;SDS011;10032;51.386;12.516;2022-12-07T10:47:09;8.07;;;4.97;;
19747;SDS011;10032;51.386;12.516;2022-12-07T11:01:23;8.87;;;4.77;;
19747;SDS011;10032;51.386;12.516;2022-12-07T11:14:39;7.73;;;5.07;;
19747;SDS011;10032;51.386;12.516;2022-12-07T11:25:38;6.60;;;3.70;;
19747;SDS011;10032;51.386;12.516;2022-12-07T11:36:40;7.30;;;3.47;;
19747;SDS011;10032;51.386;12.516;2022-12-07T11:41:43;4.27;;;3.37;;
19747;SDS011;10032;51.386;12.516;2022-12-07T11:44:34;3.33;;;2.83;;
19747;SDS011;10032;51.386;12.516;2022-12-07T11:50:26;4.67;;;3.00;;
19747;SDS011;10032;51.386;12.516;2022-12-07T11:55:47;3.90;;;2.60;;
19747;SDS011;10032;51.386;12.516;2022-12-07T12:03:40;3.57;;;2.33;;
19747;SDS011;10032;51.386;12.516;2022-12-07T12:06:11;11.67;;;3.33;;
19747;SDS011;10032;51.386;12.516;2022-12-07T12:08:46;4.57;;;2.40;;
19747;SDS011;10032;51.386;12.516;2022-12-07T12:11:25;5.60;;;3.23;;
19747;SDS011;10032;51.386;12.516;2022-12-07T12:14:11;4.83;;;3.40;;
19747;SDS011;10032;51.386;12.516;2022-12-07T12:19:28;4.03;;;2.87;;
19747;SDS011;10032;51.386;12.516;2022-12-07T12:22:11;6.60;;;3.77;;
19747;SDS011;10032;51.386;12.516;2022-12-07T12:24:42;6.53;;;4.37;;
19747;SDS011;10032;51.386;12.516;2022-12-07T12:27:15;5.03;;;3.07;;
19747;SDS011;10032;51.386;12.516;2022-12-07T12:29:51;3.77;;;3.07;;
19747;SDS011;10032;51.386;12.516;2022-12-07T12:32:21;5.70;;;2.97;;
19747;SDS011;10032;51.386;12.516;2022-12-07T12:34:59;4.67;;;3.43;;
19747;SDS011;10032;51.386;12.516;2022-12-07T12:45:22;7.50;;;4.13;;
19747;SDS011;10032;51.386;12.516;2022-12-07T12:50:24;5.30;;;3.20;;
19747;SDS011;10032;51.386;12.516;2022-12-07T13:00:49;3.10;;;2.50;;
19747;SDS011;10032;51.386;12.516;2022-12-07T13:03:52;6.07;;;3.90;;
19747;SDS011;10032;51.386;12.516;2022-12-07T13:08:50;5.13;;;2.63;;
19747;SDS011;10032;51.386;12.516;2022-12-07T13:11:34;3.60;;;2.47;;
19747;SDS011;10032;51.386;12.516;2022-12-07T13:17:55;2.20;;;2.00;;
19747;SDS011;10032;51.386;12.516;2022-12-07T13:20:01;2.70;;;2.33;;
19747;SDS011;10032;51.386;12.516;2022-12-07T13:24:57;4.23;;;2.17;;
19747;SDS011;10032;51.386;12.516;2022-12-07T13:27:33;3.50;;;2.20;;
19747;SDS011;10032;51.386;12.516;2022-12-07T13:30:03;2.57;;;2.07;;
19747;SDS011;10032;51.386;12.516;2022-12-07T13:32:43;3.13;;;1.90;;
19747;SDS011;10032;51.386;12.516;2022-12-07T13:38:01;6.33;;;2.43;;
19747;SDS011;10032;51.386;12.516;2022-12-07T13:40:29;3.10;;;2.30;;
19747;SDS011;10032;51.386;12.516;2022-12-07T13:42:58;2.20;;;1.97;;
19747;SDS011;10032;51.386;12.516;2022-12-07T13:45:26;2.03;;;1.83;;
19747;SDS011;10032;51.386;12.516;2022-12-07T13:48:16;1.67;;;1.57;;
19747;SDS011;10032;51.386;12.516;2022-12-07T13:50:57;2.23;;;2.00;;
19747;SDS011;10032;51.386;12.516;2022-12-07T13:53:24;2.53;;;2.00;;
19747;SDS011;10032;51.386;12.516;2022-12-07T13:55:53;2.27;;;1.73;;
19747;SDS011;10032;51.386;12.516;2022-12-07T13:58:19;1.50;;;1.40;;
19747;SDS011;10032;51.386;12.516;2022-12-07T14:00:44;1.57;;;1.47;;
19747;SDS011;10032;51.386;12.516;2022-12-07T14:05:38;2.03;;;1.70;;
19747;SDS011;10032;51.386;12.516;2022-12-07T14:08:20;3.73;;;2.07;;
19747;SDS011;10032;51.386;12.516;2022-12-07T14:16:22;1.93;;;1.50;;
19747;SDS011;10032;51.386;12.516;2022-12-07T14:22:33;2.03;;;1.53;;
19747;SDS011;10032;51.386;12.516;2022-12-07T14:25:15;4.93;;;1.90;;
19747;SDS011;10032;51.386;12.516;2022-12-07T14:27:50;1.57;;;1.30;;
19747;SDS011;10032;51.386;12.516;2022-12-07T14:30:24;4.10;;;1.90;;
19747;SDS011;10032;51.386;12.516;2022-12-07T14:32:59;2.03;;;1.50;;
19747;SDS011;10032;51.386;12.516;2022-12-07T14:35:26;1.70;;;1.50;;
19747;SDS011;10032;51.386;12.516;2022-12-07T14:37:52;1.97;;;1.87;;
19747;SDS011;10032;51.386;12.516;2022-12-07T14:40:25;2.97;;;1.80;;
19747;SDS011;10032;51.386;12.516;2022-12-07T14:42:57;2.33;;;1.50;;
19747;SDS011;10032;51.386;12.516;2022-12-07T14:45:26;8.83;;;2.33;;
19747;SDS011;10032;51.386;12.516;2022-12-07T14:47:52;2.20;;;1.60;;
19747;SDS011;10032;51.386;12.516;2022-12-07T14:50:18;2.30;;;1.70;;
19747;SDS011;10032;51.386;12.516;2022-12-07T14:53:10;4.07;;;2.10;;
19747;SDS011;10032;51.386;12.516;2022-12-07T14:55:38;4.13;;;1.80;;
19747;SDS011;10032;51.386;12.516;2022-12-07T14:58:04;2.90;;;1.73;;
19747;SDS011;10032;51.386;12.516;2022-12-07T15:00:29;3.67;;;1.70;;
19747;SDS011;10032;51.386;12.516;2022-12-07T15:02:55;4.87;;;2.40;;
19747;SDS011;10032;51.386;12.516;2022-12-07T15:05:21;2.23;;;1.90;;
19747;SDS011;10032;51.386;12.516;2022-12-07T15:07:47;2.37;;;2.10;;
19747;SDS011;10032;51.386;12.516;2022-12-07T15:10:18;2.87;;;2.10;;
19747;SDS011;10032;51.386;12.516;2022-12-07T15:12:46;5.60;;;2.30;;
19747;SDS011;10032;51.386;12.516;2022-12-07T15:15:11;4.13;;;2.10;;
19747;SDS011;10032;51.386;12.516;2022-12-07T15:17:37;4.47;;;2.60;;
19747;SDS011;10032;51.386;12.516;2022-12-07T15:20:03;3.57;;;2.77;;
19747;SDS011;10032;51.386;12.516;2022-12-07T15:22:29;3.40;;;2.90;;
19747;SDS011;10032;51.386;12.516;2022-12-07T15:24:56;2.97;;;1.97;;
19747;SDS011;10032;51.386;12.516;2022-12-07T15:27:22;3.33;;;2.10;;
19747;SDS011;10032;51.386;12.516;2022-12-07T15:29:47;4.13;;;2.10;;
19747;SDS011;10032;51.386;12.516;2022-12-07T15:32:13;3.47;;;2.13;;
19747;SDS011;10032;51.386;12.516;2022-12-07T15:34:38;3.47;;;2.23;;
19747;SDS011;10032;51.386;12.516;2022-12-07T15:37:03;3.33;;;2.50;;
19747;SDS011;10032;51.386;12.516;2022-12-07T15:39:29;2.10;;;1.80;;
19747;SDS011;10032;51.386;12.516;2022-12-07T15:41:54;2.87;;;1.90;;
19747;SDS011;10032;51.386;12.516;2022-12-07T15:44:20;3.73;;;2.30;;
19747;SDS011;10032;51.386;12.516;2022-12-07T15:47:04;3.57;;;1.90;;
19747;SDS011;10032;51.386;12.516;2022-12-07T15:49:30;3.00;;;2.60;;
19747;SDS011;10032;51.386;12.516;2022-12-07T15:51:56;2.27;;;2.00;;
19747;SDS011;10032;51.386;12.516;2022-12-07T15:54:26;2.23;;;1.90;;
19747;SDS011;10032;51.386;12.516;2022-12-07T15:56:53;3.13;;;2.03;;
19747;SDS011;10032;51.386;12.516;2022-12-07T15:59:19;3.17;;;2.20;;
19747;SDS011;10032;51.386;12.516;2022-12-07T16:01:44;8.07;;;2.43;;
19747;SDS011;10032;51.386;12.516;2022-12-07T16:04:10;4.13;;;2.70;;
19747;SDS011;10032;51.386;12.516;2022-12-07T16:06:35;3.63;;;1.93;;
19747;SDS011;10032;51.386;12.516;2022-12-07T16:09:01;2.53;;;1.90;;
19747;SDS011;10032;51.386;12.516;2022-12-07T16:11:26;3.57;;;2.50;;
19747;SDS011;10032;51.386;12.516;2022-12-07T16:13:52;3.73;;;2.20;;
19747;SDS011;10032;51.386;12.516;2022-12-07T16:16:18;2.93;;;2.27;;
19747;SDS011;10032;51.386;12.516;2022-12-07T16:18:45;2.30;;;2.10;;
19747;SDS011;10032;51.386;12.516;2022-12-07T16:21:12;3.07;;;2.40;;
19747;SDS011;10032;51.386;12.516;2022-12-07T16:23:38;2.90;;;2.00;;
19747;SDS011;10032;51.386;12.516;2022-12-07T16:26:07;3.30;;;2.30;;
19747;SDS011;10032;51.386;12.516;2022-12-07T16:28:35;3.70;;;2.03;;
19747;SDS011;10032;51.386;12.516;2022-12-07T16:31:04;3.57;;;1.87;;
19747;SDS011;10032;51.386;12.516;2022-12-07T16:33:36;3.70;;;1.80;;
19747;SDS011;10032;51.386;12.516;2022-12-07T16:36:03;3.67;;;2.40;;
19747;SDS011;10032;51.386;12.516;2022-12-07T16:38:30;3.30;;;1.77;;
19747;SDS011;10032;51.386;12.516;2022-12-07T16:40:56;3.90;;;2.27;;
19747;SDS011;10032;51.386;12.516;2022-12-07T16:43:21;3.27;;;2.20;;
19747;SDS011;10032;51.386;12.516;2022-12-07T16:45:47;3.93;;;2.20;;
19747;SDS011;10032;51.386;12.516;2022-12-07T16:48:14;3.40;;;2.63;;
19747;SDS011;10032;51.386;12.516;2022-12-07T16:50:40;2.77;;;2.30;;
19747;SDS011;10032;51.386;12.516;2022-12-07T16:53:07;5.30;;;2.80;;
19747;SDS011;10032;51.386;12.516;2022-12-07T16:55:37;4.73;;;2.80;;
19747;SDS011;10032;51.386;12.516;2022-12-07T16:58:06;5.47;;;4.00;;
19747;SDS011;10032;51.386;12.516;2022-12-07T17:00:32;4.63;;;3.00;;
19747;SDS011;10032;51.386;12.516;2022-12-07T17:02:58;4.03;;;3.07;;
19747;SDS011;10032;51.386;12.516;2022-12-07T17:05:23;3.53;;;3.20;;